sensor_id;sensor_type;location;lat;lon;timestamp;P1;durP1;ratioP1;P2;durP2;ratioP2
64667;SDS011;51077;42.716;23.344;2022-12-18T00:02:20;6.60;;;4.13;;
64667;SDS011;51077;42.716;23.344;2022-12-18T00:04:47;6.88;;;4.63;;
64667;SDS011;51077;42.716;23.344;2022-12-18T00:07:12;8.13;;;4.83;;
64667;SDS011;51077;42.716;23.344;2022-12-18T00:09:38;6.87;;;4.40;;
64667;SDS011;51077;42.716;23.344;2022-12-18T00:12:03;8.20;;;4.70;;
64667;SDS011;51077;42.716;23.344;2022-12-18T00:14:29;7.63;;;4.60;;
64667;SDS011;51077;42.716;23.344;2022-12-18T00:16:54;6.67;;;4.50;;
64667;SDS011;51077;42.716;23.344;2022-12-18T00:19:19;7.83;;;4.30;;
64667;SDS011;51077;42.716;23.344;2022-12-18T00:21:45;7.77;;;5.20;;
64667;SDS011;51077;42.716;23.344;2022-12-18T00:24:10;8.00;;;4.77;;
64667;SDS011;51077;42.716;23.344;2022-12-18T00:26:37;6.93;;;4.47;;
64667;SDS011;51077;42.716;23.344;2022-12-18T00:29:09;7.47;;;4.82;;
64667;SDS011;51077;42.716;23.344;2022-12-18T00:31:36;8.52;;;5.38;;
64667;SDS011;51077;42.716;23.344;2022-12-18T00:34:02;8.13;;;5.00;;
64667;SDS011;51077;42.716;23.344;2022-12-18T00:36:29;7.70;;;4.80;;
64667;SDS011;51077;42.716;23.344;2022-12-18T00:38:57;9.70;;;5.40;;
64667;SDS011;51077;42.716;23.344;2022-12-18T00:41:24;8.95;;;5.25;;
64667;SDS011;51077;42.716;23.344;2022-12-18T00:44:09;8.68;;;5.60;;
64667;SDS011;51077;42.716;23.344;2022-12-18T00:46:36;8.30;;;4.53;;
64667;SDS011;51077;42.716;23.344;2022-12-18T00:49:02;7.70;;;5.10;;
64667;SDS011;51077;42.716;23.344;2022-12-18T00:51:28;10.27;;;5.77;;
64667;SDS011;51077;42.716;23.344;2022-12-18T00:53:53;8.70;;;5.00;;
64667;SDS011;51077;42.716;23.344;2022-12-18T00:56:19;8.60;;;5.40;;
64667;SDS011;51077;42.716;23.344;2022-12-18T00:58:44;8.23;;;5.07;;
64667;SDS011;51077;42.716;23.344;2022-12-18T01:01:09;7.93;;;5.10;;
64667;SDS011;51077;42.716;23.344;2022-12-18T01:03:35;8.13;;;4.80;;
64667;SDS011;51077;42.716;23.344;2022-12-18T01:06:10;7.33;;;5.07;;
64667;SDS011;51077;42.716;23.344;2022-12-18T01:08:36;7.95;;;4.97;;
64667;SDS011;51077;42.716;23.344;2022-12-18T01:11:09;8.75;;;5.35;;
64667;SDS011;51077;42.716;23.344;2022-12-18T01:13:39;8.57;;;5.57;;
64667;SDS011;51077;42.716;23.344;2022-12-18T01:16:05;8.27;;;5.43;;
64667;SDS011;51077;42.716;23.344;2022-12-18T01:18:31;10.77;;;5.82;;
64667;SDS011;51077;42.716;23.344;2022-12-18T01:20:56;7.50;;;4.70;;
64667;SDS011;51077;42.716;23.344;2022-12-18T01:23:22;9.10;;;5.20;;
64667;SDS011;51077;42.716;23.344;2022-12-18T01:25:48;8.93;;;4.72;;
64667;SDS011;51077;42.716;23.344;2022-12-18T01:28:14;6.90;;;4.90;;
64667;SDS011;51077;42.716;23.344;2022-12-18T01:30:39;9.47;;;5.53;;
64667;SDS011;51077;42.716;23.344;2022-12-18T01:33:05;8.37;;;5.30;;
64667;SDS011;51077;42.716;23.344;2022-12-18T01:35:30;9.57;;;5.37;;
64667;SDS011;51077;42.716;23.344;2022-12-18T01:37:56;9.77;;;6.63;;
64667;SDS011;51077;42.716;23.344;2022-12-18T01:40:22;7.53;;;5.20;;
64667;SDS011;51077;42.716;23.344;2022-12-18T01:42:51;8.82;;;5.75;;
64667;SDS011;51077;42.716;23.344;2022-12-18T01:45:21;10.88;;;6.40;;
64667;SDS011;51077;42.716;23.344;2022-12-18T01:53:01;8.80;;;5.57;;
64667;SDS011;51077;42.716;23.344;2022-12-18T01:55:52;9.43;;;5.57;;
64667;SDS011;51077;42.716;23.344;2022-12-18T01:58:19;8.93;;;5.55;;
64667;SDS011;51077;42.716;23.344;2022-12-18T02:01:06;8.70;;;5.75;;
64667;SDS011;51077;42.716;23.344;2022-12-18T02:03:32;9.33;;;5.17;;
64667;SDS011;51077;42.716;23.344;2022-12-18T02:13:41;10.10;;;5.72;;
64667;SDS011;51077;42.716;23.344;2022-12-18T02:16:33;8.68;;;5.25;;
64667;SDS011;51077;42.716;23.344;2022-12-18T02:19:00;11.48;;;5.63;;
64667;SDS011;51077;42.716;23.344;2022-12-18T02:27:16;8.30;;;5.30;;
64667;SDS011;51077;42.716;23.344;2022-12-18T02:32:22;9.35;;;5.47;;
64667;SDS011;51077;42.716;23.344;2022-12-18T02:34:52;9.07;;;5.43;;
64667;SDS011;51077;42.716;23.344;2022-12-18T02:37:21;9.43;;;5.13;;
64667;SDS011;51077;42.716;23.344;2022-12-18T02:39:48;8.70;;;5.00;;
64667;SDS011;51077;42.716;23.344;2022-12-18T02:42:16;6.95;;;4.57;;
64667;SDS011;51077;42.716;23.344;2022-12-18T02:44:47;11.10;;;4.88;;
64667;SDS011;51077;42.716;23.344;2022-12-18T02:47:14;9.00;;;4.88;;
64667;SDS011;51077;42.716;23.344;2022-12-18T02:52:34;6.65;;;4.43;;
64667;SDS011;51077;42.716;23.344;2022-12-18T02:55:36;7.53;;;4.47;;
64667;SDS011;51077;42.716;23.344;2022-12-18T03:01:19;8.65;;;4.82;;
64667;SDS011;51077;42.716;23.344;2022-12-18T03:03:54;7.78;;;4.60;;
64667;SDS011;51077;42.716;23.344;2022-12-18T03:06:30;7.95;;;4.80;;
64667;SDS011;51077;42.716;23.344;2022-12-18T03:09:02;7.60;;;4.63;;
64667;SDS011;51077;42.716;23.344;2022-12-18T03:11:33;8.00;;;4.78;;
64667;SDS011;51077;42.716;23.344;2022-12-18T03:14:21;9.15;;;5.03;;
64667;SDS011;51077;42.716;23.344;2022-12-18T03:16:52;6.95;;;4.60;;
64667;SDS011;51077;42.716;23.344;2022-12-18T03:19:21;6.70;;;3.80;;
64667;SDS011;51077;42.716;23.344;2022-12-18T03:21:49;9.68;;;4.97;;
64667;SDS011;51077;42.716;23.344;2022-12-18T03:24:20;7.97;;;4.80;;
64667;SDS011;51077;42.716;23.344;2022-12-18T03:26:48;8.18;;;4.50;;
64667;SDS011;51077;42.716;23.344;2022-12-18T03:29:40;7.05;;;4.38;;
64667;SDS011;51077;42.716;23.344;2022-12-18T03:32:10;10.43;;;4.90;;
64667;SDS011;51077;42.716;23.344;2022-12-18T03:34:40;7.57;;;4.80;;
64667;SDS011;51077;42.716;23.344;2022-12-18T03:37:08;7.85;;;4.82;;
64667;SDS011;51077;42.716;23.344;2022-12-18T03:39:34;8.93;;;5.35;;
64667;SDS011;51077;42.716;23.344;2022-12-18T03:42:12;7.90;;;4.93;;
64667;SDS011;51077;42.716;23.344;2022-12-18T03:44:44;8.35;;;5.05;;
64667;SDS011;51077;42.716;23.344;2022-12-18T03:52:52;8.23;;;4.85;;
64667;SDS011;51077;42.716;23.344;2022-12-18T03:55:23;8.60;;;4.88;;
64667;SDS011;51077;42.716;23.344;2022-12-18T03:57:50;11.93;;;6.18;;
64667;SDS011;51077;42.716;23.344;2022-12-18T04:00:18;8.02;;;4.75;;
64667;SDS011;51077;42.716;23.344;2022-12-18T04:02:47;7.82;;;5.00;;
64667;SDS011;51077;42.716;23.344;2022-12-18T04:05:16;10.52;;;5.45;;
64667;SDS011;51077;42.716;23.344;2022-12-18T04:07:45;8.70;;;5.07;;
64667;SDS011;51077;42.716;23.344;2022-12-18T04:10:12;8.35;;;5.38;;
64667;SDS011;51077;42.716;23.344;2022-12-18T04:12:40;8.48;;;5.25;;
64667;SDS011;51077;42.716;23.344;2022-12-18T04:15:06;8.70;;;5.22;;
64667;SDS011;51077;42.716;23.344;2022-12-18T04:17:32;8.65;;;5.40;;
64667;SDS011;51077;42.716;23.344;2022-12-18T04:19:58;9.27;;;5.60;;
64667;SDS011;51077;42.716;23.344;2022-12-18T04:22:23;9.63;;;6.00;;
64667;SDS011;51077;42.716;23.344;2022-12-18T04:24:49;12.07;;;5.67;;
64667;SDS011;51077;42.716;23.344;2022-12-18T04:27:14;9.67;;;6.10;;
64667;SDS011;51077;42.716;23.344;2022-12-18T04:29:40;10.57;;;6.40;;
64667;SDS011;51077;42.716;23.344;2022-12-18T04:32:06;9.87;;;6.10;;
64667;SDS011;51077;42.716;23.344;2022-12-18T04:34:32;10.80;;;6.55;;
64667;SDS011;51077;42.716;23.344;2022-12-18T04:36:58;10.57;;;6.03;;
64667;SDS011;51077;42.716;23.344;2022-12-18T04:39:23;12.07;;;6.87;;
64667;SDS011;51077;42.716;23.344;2022-12-18T04:41:49;11.07;;;6.90;;
64667;SDS011;51077;42.716;23.344;2022-12-18T04:44:14;11.33;;;6.40;;
64667;SDS011;51077;42.716;23.344;2022-12-18T04:46:39;11.70;;;7.37;;
64667;SDS011;51077;42.716;23.344;2022-12-18T04:49:05;10.07;;;6.80;;
64667;SDS011;51077;42.716;23.344;2022-12-18T04:51:30;11.13;;;7.10;;
64667;SDS011;51077;42.716;23.344;2022-12-18T04:53:56;12.60;;;7.70;;
64667;SDS011;51077;42.716;23.344;2022-12-18T04:56:21;11.87;;;7.33;;
64667;SDS011;51077;42.716;23.344;2022-12-18T04:58:47;12.73;;;7.28;;
64667;SDS011;51077;42.716;23.344;2022-12-18T05:01:14;10.53;;;7.57;;
64667;SDS011;51077;42.716;23.344;2022-12-18T05:03:41;13.38;;;7.97;;
64667;SDS011;51077;42.716;23.344;2022-12-18T05:06:06;12.90;;;7.80;;
64667;SDS011;51077;42.716;23.344;2022-12-18T05:08:32;15.07;;;8.75;;
64667;SDS011;51077;42.716;23.344;2022-12-18T05:11:02;11.35;;;7.50;;
64667;SDS011;51077;42.716;23.344;2022-12-18T05:13:30;11.88;;;7.82;;
64667;SDS011;51077;42.716;23.344;2022-12-18T05:15:56;12.85;;;7.93;;
64667;SDS011;51077;42.716;23.344;2022-12-18T05:18:22;12.32;;;7.47;;
64667;SDS011;51077;42.716;23.344;2022-12-18T05:20:49;12.10;;;7.97;;
64667;SDS011;51077;42.716;23.344;2022-12-18T05:23:15;12.38;;;8.00;;
64667;SDS011;51077;42.716;23.344;2022-12-18T05:25:41;13.40;;;8.27;;
64667;SDS011;51077;42.716;23.344;2022-12-18T05:28:06;14.10;;;8.63;;
64667;SDS011;51077;42.716;23.344;2022-12-18T05:30:32;14.40;;;7.73;;
64667;SDS011;51077;42.716;23.344;2022-12-18T05:32:57;13.23;;;7.80;;
64667;SDS011;51077;42.716;23.344;2022-12-18T05:35:22;13.77;;;8.83;;
64667;SDS011;51077;42.716;23.344;2022-12-18T05:37:48;13.40;;;7.97;;
64667;SDS011;51077;42.716;23.344;2022-12-18T05:40:13;14.13;;;7.90;;
64667;SDS011;51077;42.716;23.344;2022-12-18T05:42:39;14.13;;;8.13;;
64667;SDS011;51077;42.716;23.344;2022-12-18T05:45:04;15.47;;;8.10;;
64667;SDS011;51077;42.716;23.344;2022-12-18T05:47:30;13.43;;;8.95;;
64667;SDS011;51077;42.716;23.344;2022-12-18T05:49:56;14.33;;;8.57;;
64667;SDS011;51077;42.716;23.344;2022-12-18T05:52:21;14.13;;;9.00;;
64667;SDS011;51077;42.716;23.344;2022-12-18T05:54:47;15.83;;;9.07;;
64667;SDS011;51077;42.716;23.344;2022-12-18T05:57:12;14.77;;;9.10;;
64667;SDS011;51077;42.716;23.344;2022-12-18T05:59:38;16.50;;;8.93;;
64667;SDS011;51077;42.716;23.344;2022-12-18T06:02:03;15.90;;;8.90;;
64667;SDS011;51077;42.716;23.344;2022-12-18T06:04:29;14.63;;;9.00;;
64667;SDS011;51077;42.716;23.344;2022-12-18T06:06:54;16.37;;;10.00;;
64667;SDS011;51077;42.716;23.344;2022-12-18T06:09:19;16.33;;;9.70;;
64667;SDS011;51077;42.716;23.344;2022-12-18T06:11:45;15.20;;;8.90;;
64667;SDS011;51077;42.716;23.344;2022-12-18T06:14:10;16.93;;;9.73;;
64667;SDS011;51077;42.716;23.344;2022-12-18T06:16:36;15.80;;;9.47;;
64667;SDS011;51077;42.716;23.344;2022-12-18T06:19:03;15.87;;;9.50;;
64667;SDS011;51077;42.716;23.344;2022-12-18T06:21:29;16.48;;;10.27;;
64667;SDS011;51077;42.716;23.344;2022-12-18T06:23:55;14.23;;;9.33;;
64667;SDS011;51077;42.716;23.344;2022-12-18T06:26:21;15.87;;;10.53;;
64667;SDS011;51077;42.716;23.344;2022-12-18T06:28:46;16.13;;;9.68;;
64667;SDS011;51077;42.716;23.344;2022-12-18T06:31:12;13.93;;;8.47;;
64667;SDS011;51077;42.716;23.344;2022-12-18T06:33:38;13.93;;;9.00;;
64667;SDS011;51077;42.716;23.344;2022-12-18T06:38:31;13.40;;;8.23;;
64667;SDS011;51077;42.716;23.344;2022-12-18T06:40:57;14.23;;;9.82;;
64667;SDS011;51077;42.716;23.344;2022-12-18T06:43:23;15.50;;;10.17;;
64667;SDS011;51077;42.716;23.344;2022-12-18T06:45:49;16.27;;;9.67;;
64667;SDS011;51077;42.716;23.344;2022-12-18T06:48:18;16.73;;;10.02;;
64667;SDS011;51077;42.716;23.344;2022-12-18T06:50:44;17.80;;;10.40;;
64667;SDS011;51077;42.716;23.344;2022-12-18T06:53:10;14.00;;;8.77;;
64667;SDS011;51077;42.716;23.344;2022-12-18T06:55:36;14.43;;;8.97;;
64667;SDS011;51077;42.716;23.344;2022-12-18T06:58:01;15.00;;;9.17;;
64667;SDS011;51077;42.716;23.344;2022-12-18T07:00:29;15.38;;;9.48;;
64667;SDS011;51077;42.716;23.344;2022-12-18T07:02:55;17.57;;;10.57;;
64667;SDS011;51077;42.716;23.344;2022-12-18T07:05:20;15.40;;;9.60;;
64667;SDS011;51077;42.716;23.344;2022-12-18T07:07:45;15.30;;;9.37;;
64667;SDS011;51077;42.716;23.344;2022-12-18T07:10:11;16.30;;;9.17;;
64667;SDS011;51077;42.716;23.344;2022-12-18T07:12:36;14.37;;;9.43;;
64667;SDS011;51077;42.716;23.344;2022-12-18T07:15:02;13.73;;;9.23;;
64667;SDS011;51077;42.716;23.344;2022-12-18T07:17:28;15.20;;;9.23;;
64667;SDS011;51077;42.716;23.344;2022-12-18T07:19:54;15.43;;;9.10;;
64667;SDS011;51077;42.716;23.344;2022-12-18T07:22:20;17.23;;;10.00;;
64667;SDS011;51077;42.716;23.344;2022-12-18T07:24:45;22.30;;;13.90;;
64667;SDS011;51077;42.716;23.344;2022-12-18T07:27:11;22.07;;;13.87;;
64667;SDS011;51077;42.716;23.344;2022-12-18T07:29:36;19.33;;;13.20;;
64667;SDS011;51077;42.716;23.344;2022-12-18T07:32:01;19.33;;;12.60;;
64667;SDS011;51077;42.716;23.344;2022-12-18T07:34:27;23.67;;;13.80;;
64667;SDS011;51077;42.716;23.344;2022-12-18T07:36:52;19.77;;;12.40;;
64667;SDS011;51077;42.716;23.344;2022-12-18T07:39:17;18.33;;;11.83;;
64667;SDS011;51077;42.716;23.344;2022-12-18T07:41:43;18.23;;;11.93;;
64667;SDS011;51077;42.716;23.344;2022-12-18T07:44:28;19.77;;;11.82;;
64667;SDS011;51077;42.716;23.344;2022-12-18T07:46:54;19.37;;;11.77;;
64667;SDS011;51077;42.716;23.344;2022-12-18T07:49:19;19.97;;;12.20;;
64667;SDS011;51077;42.716;23.344;2022-12-18T07:51:45;20.03;;;11.97;;
64667;SDS011;51077;42.716;23.344;2022-12-18T07:54:14;18.48;;;11.82;;
64667;SDS011;51077;42.716;23.344;2022-12-18T07:56:39;20.00;;;12.40;;
64667;SDS011;51077;42.716;23.344;2022-12-18T07:59:05;19.13;;;11.40;;
64667;SDS011;51077;42.716;23.344;2022-12-18T08:01:30;16.80;;;11.77;;
64667;SDS011;51077;42.716;23.344;2022-12-18T08:03:57;17.03;;;11.23;;
64667;SDS011;51077;42.716;23.344;2022-12-18T08:06:23;16.60;;;11.13;;
64667;SDS011;51077;42.716;23.344;2022-12-18T08:08:48;19.13;;;11.80;;
64667;SDS011;51077;42.716;23.344;2022-12-18T08:11:13;16.67;;;11.00;;
64667;SDS011;51077;42.716;23.344;2022-12-18T08:13:39;18.80;;;11.87;;
64667;SDS011;51077;42.716;23.344;2022-12-18T08:16:05;17.23;;;11.50;;
64667;SDS011;51077;42.716;23.344;2022-12-18T08:18:33;18.58;;;11.57;;
64667;SDS011;51077;42.716;23.344;2022-12-18T08:21:12;16.75;;;10.63;;
64667;SDS011;51077;42.716;23.344;2022-12-18T08:23:40;17.52;;;11.27;;
64667;SDS011;51077;42.716;23.344;2022-12-18T08:26:05;19.00;;;11.23;;
64667;SDS011;51077;42.716;23.344;2022-12-18T08:28:31;17.37;;;10.43;;
64667;SDS011;51077;42.716;23.344;2022-12-18T08:30:56;20.13;;;11.53;;
64667;SDS011;51077;42.716;23.344;2022-12-18T08:33:22;18.40;;;11.27;;
64667;SDS011;51077;42.716;23.344;2022-12-18T08:35:48;18.55;;;12.02;;
64667;SDS011;51077;42.716;23.344;2022-12-18T08:38:13;23.60;;;14.37;;
64667;SDS011;51077;42.716;23.344;2022-12-18T08:40:39;26.77;;;15.97;;
64667;SDS011;51077;42.716;23.344;2022-12-18T08:43:04;26.40;;;15.83;;
64667;SDS011;51077;42.716;23.344;2022-12-18T08:45:48;23.77;;;15.70;;
64667;SDS011;51077;42.716;23.344;2022-12-18T08:48:14;25.20;;;15.57;;
64667;SDS011;51077;42.716;23.344;2022-12-18T08:50:40;25.40;;;15.73;;
64667;SDS011;51077;42.716;23.344;2022-12-18T08:53:06;28.38;;;16.77;;
64667;SDS011;51077;42.716;23.344;2022-12-18T08:55:31;22.17;;;14.20;;
64667;SDS011;51077;42.716;23.344;2022-12-18T08:57:57;24.40;;;15.03;;
64667;SDS011;51077;42.716;23.344;2022-12-18T09:00:22;22.10;;;14.50;;
64667;SDS011;51077;42.716;23.344;2022-12-18T09:02:47;23.67;;;14.30;;
64667;SDS011;51077;42.716;23.344;2022-12-18T09:05:13;23.17;;;14.13;;
64667;SDS011;51077;42.716;23.344;2022-12-18T09:07:38;22.37;;;14.57;;
64667;SDS011;51077;42.716;23.344;2022-12-18T09:10:04;26.30;;;16.70;;
64667;SDS011;51077;42.716;23.344;2022-12-18T09:12:30;22.23;;;15.25;;
64667;SDS011;51077;42.716;23.344;2022-12-18T09:14:56;22.13;;;14.43;;
64667;SDS011;51077;42.716;23.344;2022-12-18T09:17:22;22.63;;;14.70;;
64667;SDS011;51077;42.716;23.344;2022-12-18T09:19:47;22.60;;;13.97;;
64667;SDS011;51077;42.716;23.344;2022-12-18T09:22:12;19.63;;;13.57;;
64667;SDS011;51077;42.716;23.344;2022-12-18T09:24:38;22.90;;;14.13;;
64667;SDS011;51077;42.716;23.344;2022-12-18T09:27:03;20.67;;;13.03;;
64667;SDS011;51077;42.716;23.344;2022-12-18T09:29:29;23.97;;;14.40;;
64667;SDS011;51077;42.716;23.344;2022-12-18T09:31:54;21.43;;;14.27;;
64667;SDS011;51077;42.716;23.344;2022-12-18T09:34:20;20.63;;;13.87;;
64667;SDS011;51077;42.716;23.344;2022-12-18T09:36:46;21.52;;;13.85;;
64667;SDS011;51077;42.716;23.344;2022-12-18T09:39:12;21.97;;;14.00;;
64667;SDS011;51077;42.716;23.344;2022-12-18T09:41:47;23.20;;;13.97;;
64667;SDS011;51077;42.716;23.344;2022-12-18T09:44:20;20.08;;;13.50;;
64667;SDS011;51077;42.716;23.344;2022-12-18T09:49:43;19.98;;;13.10;;
64667;SDS011;51077;42.716;23.344;2022-12-18T09:57:42;17.02;;;12.15;;
64667;SDS011;51077;42.716;23.344;2022-12-18T10:00:24;20.25;;;12.75;;
64667;SDS011;51077;42.716;23.344;2022-12-18T10:02:58;18.52;;;12.25;;
64667;SDS011;51077;42.716;23.344;2022-12-18T10:08:05;19.17;;;12.18;;
64667;SDS011;51077;42.716;23.344;2022-12-18T10:11:01;20.65;;;12.13;;
64667;SDS011;51077;42.716;23.344;2022-12-18T10:13:40;23.92;;;12.15;;
64667;SDS011;51077;42.716;23.344;2022-12-18T10:16:16;19.25;;;11.43;;
64667;SDS011;51077;42.716;23.344;2022-12-18T10:27:26;18.67;;;11.63;;
64667;SDS011;51077;42.716;23.344;2022-12-18T10:29:53;17.23;;;11.85;;
64667;SDS011;51077;42.716;23.344;2022-12-18T10:32:21;17.90;;;11.27;;
64667;SDS011;51077;42.716;23.344;2022-12-18T10:34:50;16.75;;;10.82;;
64667;SDS011;51077;42.716;23.344;2022-12-18T10:37:18;17.02;;;12.23;;
64667;SDS011;51077;42.716;23.344;2022-12-18T10:40:08;20.50;;;12.85;;
64667;SDS011;51077;42.716;23.344;2022-12-18T10:42:39;23.25;;;14.25;;
64667;SDS011;51077;42.716;23.344;2022-12-18T10:45:13;21.20;;;13.70;;
64667;SDS011;51077;42.716;23.344;2022-12-18T10:47:45;21.52;;;13.57;;
64667;SDS011;51077;42.716;23.344;2022-12-18T10:50:25;18.00;;;11.73;;
64667;SDS011;51077;42.716;23.344;2022-12-18T10:53:00;19.45;;;12.82;;
64667;SDS011;51077;42.716;23.344;2022-12-18T10:55:32;19.30;;;12.80;;
64667;SDS011;51077;42.716;23.344;2022-12-18T10:58:13;20.10;;;11.90;;
64667;SDS011;51077;42.716;23.344;2022-12-18T11:00:46;17.17;;;11.13;;
64667;SDS011;51077;42.716;23.344;2022-12-18T11:03:33;17.75;;;11.40;;
64667;SDS011;51077;42.716;23.344;2022-12-18T11:08:34;20.17;;;11.40;;
64667;SDS011;51077;42.716;23.344;2022-12-18T11:11:00;17.87;;;11.80;;
64667;SDS011;51077;42.716;23.344;2022-12-18T11:13:26;18.27;;;11.07;;
64667;SDS011;51077;42.716;23.344;2022-12-18T11:15:54;17.33;;;10.70;;
64667;SDS011;51077;42.716;23.344;2022-12-18T11:18:33;16.37;;;10.87;;
64667;SDS011;51077;42.716;23.344;2022-12-18T11:23:32;16.58;;;9.43;;
64667;SDS011;51077;42.716;23.344;2022-12-18T11:26:00;16.45;;;10.23;;
64667;SDS011;51077;42.716;23.344;2022-12-18T11:31:20;18.73;;;10.63;;
64667;SDS011;51077;42.716;23.344;2022-12-18T11:34:31;19.58;;;10.95;;
64667;SDS011;51077;42.716;23.344;2022-12-18T11:36:47;17.63;;;10.50;;
64667;SDS011;51077;42.716;23.344;2022-12-18T11:39:18;14.30;;;9.40;;
64667;SDS011;51077;42.716;23.344;2022-12-18T11:50:18;16.35;;;9.88;;
64667;SDS011;51077;42.716;23.344;2022-12-18T11:52:49;18.23;;;10.05;;
64667;SDS011;51077;42.716;23.344;2022-12-18T11:55:15;15.90;;;10.67;;
64667;SDS011;51077;42.716;23.344;2022-12-18T12:09:27;17.10;;;9.88;;
64667;SDS011;51077;42.716;23.344;2022-12-18T12:14:47;15.90;;;9.48;;
64667;SDS011;51077;42.716;23.344;2022-12-18T12:17:41;16.33;;;9.98;;
64667;SDS011;51077;42.716;23.344;2022-12-18T12:20:21;16.95;;;9.27;;
64667;SDS011;51077;42.716;23.344;2022-12-18T12:23:01;17.10;;;9.77;;
64667;SDS011;51077;42.716;23.344;2022-12-18T12:28:37;16.75;;;9.95;;
64667;SDS011;51077;42.716;23.344;2022-12-18T12:39:03;16.77;;;10.05;;
64667;SDS011;51077;42.716;23.344;2022-12-18T12:41:33;17.63;;;11.05;;
64667;SDS011;51077;42.716;23.344;2022-12-18T12:44:23;19.05;;;10.95;;
64667;SDS011;51077;42.716;23.344;2022-12-18T12:46:54;17.60;;;10.88;;
64667;SDS011;51077;42.716;23.344;2022-12-18T12:49:23;18.67;;;10.88;;
64667;SDS011;51077;42.716;23.344;2022-12-18T12:51:55;22.92;;;11.07;;
64667;SDS011;51077;42.716;23.344;2022-12-18T12:54:25;17.65;;;10.35;;
64667;SDS011;51077;42.716;23.344;2022-12-18T12:57:09;17.30;;;10.13;;
64667;SDS011;51077;42.716;23.344;2022-12-18T12:59:51;19.98;;;11.35;;
64667;SDS011;51077;42.716;23.344;2022-12-18T13:02:47;17.85;;;10.93;;
64667;SDS011;51077;42.716;23.344;2022-12-18T13:08:26;16.23;;;10.25;;
64667;SDS011;51077;42.716;23.344;2022-12-18T13:10:56;16.75;;;10.73;;
64667;SDS011;51077;42.716;23.344;2022-12-18T13:14:00;18.73;;;10.75;;
64667;SDS011;51077;42.716;23.344;2022-12-18T13:16:25;17.10;;;10.50;;
64667;SDS011;51077;42.716;23.344;2022-12-18T13:18:55;16.83;;;10.27;;
64667;SDS011;51077;42.716;23.344;2022-12-18T13:21:30;15.85;;;10.32;;
64667;SDS011;51077;42.716;23.344;2022-12-18T13:24:14;17.83;;;10.52;;
64667;SDS011;51077;42.716;23.344;2022-12-18T13:26:50;16.33;;;10.00;;
64667;SDS011;51077;42.716;23.344;2022-12-18T13:32:18;18.20;;;10.43;;
64667;SDS011;51077;42.716;23.344;2022-12-18T13:34:46;16.75;;;10.75;;
64667;SDS011;51077;42.716;23.344;2022-12-18T13:37:56;20.80;;;12.80;;
64667;SDS011;51077;42.716;23.344;2022-12-18T13:39:57;20.33;;;11.55;;
64667;SDS011;51077;42.716;23.344;2022-12-18T13:48:02;22.13;;;13.40;;
64667;SDS011;51077;42.716;23.344;2022-12-18T13:50:28;22.02;;;12.80;;
64667;SDS011;51077;42.716;23.344;2022-12-18T13:52:54;24.67;;;12.40;;
64667;SDS011;51077;42.716;23.344;2022-12-18T13:55:19;19.75;;;12.10;;
64667;SDS011;51077;42.716;23.344;2022-12-18T13:57:47;21.35;;;12.10;;
64667;SDS011;51077;42.716;23.344;2022-12-18T14:02:50;21.60;;;12.30;;
64667;SDS011;51077;42.716;23.344;2022-12-18T14:07:54;20.35;;;11.88;;
64667;SDS011;51077;42.716;23.344;2022-12-18T14:10:24;19.98;;;11.82;;
64667;SDS011;51077;42.716;23.344;2022-12-18T14:12:50;22.57;;;12.83;;
64667;SDS011;51077;42.716;23.344;2022-12-18T14:17:59;20.17;;;11.88;;
64667;SDS011;51077;42.716;23.344;2022-12-18T14:20:29;19.13;;;12.40;;
64667;SDS011;51077;42.716;23.344;2022-12-18T14:22:57;18.55;;;12.00;;
64667;SDS011;51077;42.716;23.344;2022-12-18T14:25:26;21.35;;;13.18;;
64667;SDS011;51077;42.716;23.344;2022-12-18T14:27:53;21.13;;;12.80;;
64667;SDS011;51077;42.716;23.344;2022-12-18T14:30:43;20.77;;;12.43;;
64667;SDS011;51077;42.716;23.344;2022-12-18T14:33:17;21.30;;;12.95;;
64667;SDS011;51077;42.716;23.344;2022-12-18T14:36:00;18.90;;;12.07;;
64667;SDS011;51077;42.716;23.344;2022-12-18T14:41:01;20.45;;;11.27;;
64667;SDS011;51077;42.716;23.344;2022-12-18T14:43:39;19.13;;;11.10;;
64667;SDS011;51077;42.716;23.344;2022-12-18T14:48:53;21.10;;;12.82;;
64667;SDS011;51077;42.716;23.344;2022-12-18T14:51:23;19.33;;;11.75;;
64667;SDS011;51077;42.716;23.344;2022-12-18T14:54:05;20.30;;;12.50;;
64667;SDS011;51077;42.716;23.344;2022-12-18T14:56:43;20.05;;;11.43;;
64667;SDS011;51077;42.716;23.344;2022-12-18T14:59:21;19.73;;;11.80;;
64667;SDS011;51077;42.716;23.344;2022-12-18T15:01:55;20.17;;;11.48;;
64667;SDS011;51077;42.716;23.344;2022-12-18T15:04:39;19.25;;;11.38;;
64667;SDS011;51077;42.716;23.344;2022-12-18T15:10:30;18.15;;;11.00;;
64667;SDS011;51077;42.716;23.344;2022-12-18T15:13:15;19.35;;;11.40;;
64667;SDS011;51077;42.716;23.344;2022-12-18T15:18:17;17.73;;;11.02;;
64667;SDS011;51077;42.716;23.344;2022-12-18T15:25:48;17.70;;;10.93;;
64667;SDS011;51077;42.716;23.344;2022-12-18T15:31:06;17.05;;;10.85;;
64667;SDS011;51077;42.716;23.344;2022-12-18T15:36:19;20.00;;;11.38;;
64667;SDS011;51077;42.716;23.344;2022-12-18T15:38:49;18.15;;;10.95;;
64667;SDS011;51077;42.716;23.344;2022-12-18T15:41:16;20.63;;;10.77;;
64667;SDS011;51077;42.716;23.344;2022-12-18T15:43:43;18.40;;;11.13;;
64667;SDS011;51077;42.716;23.344;2022-12-18T15:46:11;18.00;;;10.75;;
64667;SDS011;51077;42.716;23.344;2022-12-18T15:48:39;18.35;;;11.35;;
64667;SDS011;51077;42.716;23.344;2022-12-18T15:51:19;19.17;;;11.38;;
64667;SDS011;51077;42.716;23.344;2022-12-18T15:53:46;20.48;;;11.18;;
64667;SDS011;51077;42.716;23.344;2022-12-18T15:56:14;17.27;;;10.98;;
64667;SDS011;51077;42.716;23.344;2022-12-18T15:58:59;19.23;;;11.32;;
64667;SDS011;51077;42.716;23.344;2022-12-18T16:01:26;18.85;;;12.10;;
64667;SDS011;51077;42.716;23.344;2022-12-18T16:03:53;19.38;;;11.85;;
64667;SDS011;51077;42.716;23.344;2022-12-18T16:06:19;18.40;;;11.37;;
64667;SDS011;51077;42.716;23.344;2022-12-18T16:08:44;19.02;;;11.23;;
64667;SDS011;51077;42.716;23.344;2022-12-18T16:11:23;20.57;;;11.70;;
64667;SDS011;51077;42.716;23.344;2022-12-18T16:14:45;19.27;;;11.90;;
64667;SDS011;51077;42.716;23.344;2022-12-18T16:16:56;21.58;;;12.02;;
64667;SDS011;51077;42.716;23.344;2022-12-18T16:19:23;18.05;;;11.43;;
64667;SDS011;51077;42.716;23.344;2022-12-18T16:21:54;18.73;;;12.02;;
64667;SDS011;51077;42.716;23.344;2022-12-18T16:24:22;18.02;;;11.68;;
64667;SDS011;51077;42.716;23.344;2022-12-18T16:26:49;18.33;;;11.07;;
64667;SDS011;51077;42.716;23.344;2022-12-18T16:29:19;19.90;;;11.98;;
64667;SDS011;51077;42.716;23.344;2022-12-18T16:31:49;18.35;;;11.88;;
64667;SDS011;51077;42.716;23.344;2022-12-18T16:36:51;20.33;;;11.73;;
64667;SDS011;51077;42.716;23.344;2022-12-18T16:39:18;20.55;;;12.30;;
64667;SDS011;51077;42.716;23.344;2022-12-18T16:41:44;18.85;;;12.63;;
64667;SDS011;51077;42.716;23.344;2022-12-18T16:44:10;20.73;;;13.15;;
64667;SDS011;51077;42.716;23.344;2022-12-18T16:46:37;20.60;;;13.45;;
64667;SDS011;51077;42.716;23.344;2022-12-18T16:49:02;20.48;;;12.85;;
64667;SDS011;51077;42.716;23.344;2022-12-18T16:51:28;22.52;;;13.25;;
64667;SDS011;51077;42.716;23.344;2022-12-18T16:53:54;19.45;;;12.52;;